createdAt,value
2018-08-20T00:01:51.192Z,22.75
2018-08-20T00:04:19.835Z,22.66
2018-08-20T00:06:56.611Z,22.54
2018-08-20T00:09:36.807Z,22.42
2018-08-20T00:12:06.881Z,22.34
2018-08-20T00:14:35.684Z,22.28
2018-08-20T00:17:04.417Z,22.21
2018-08-20T00:19:33.024Z,22.14
2018-08-20T00:22:01.643Z,22.04
2018-08-20T00:24:30.236Z,21.94
2018-08-20T00:27:00.087Z,21.96
2018-08-20T00:29:28.676Z,21.95
2018-08-20T00:31:57.371Z,21.91
2018-08-20T00:34:26.092Z,21.90
2018-08-20T00:36:54.655Z,21.88
2018-08-20T00:39:23.239Z,21.86
2018-08-20T00:41:52.211Z,21.84
2018-08-20T00:44:20.912Z,21.83
2018-08-20T00:46:49.464Z,21.80
2018-08-20T00:49:18.191Z,21.77
2018-08-20T00:51:46.779Z,21.72
2018-08-20T00:54:15.431Z,21.73
2018-08-20T00:56:44.330Z,21.74
2018-08-20T00:59:12.879Z,21.74
2018-08-20T01:01:41.438Z,21.73
2018-08-20T01:04:10.035Z,21.76
2018-08-20T01:06:38.619Z,21.74
2018-08-20T01:09:08.536Z,21.70
2018-08-20T01:11:37.831Z,21.67
2018-08-20T01:14:06.477Z,21.64
2018-08-20T01:16:35.119Z,21.61
2018-08-20T01:19:03.947Z,21.61
2018-08-20T01:21:32.532Z,21.59
2018-08-20T01:24:01.148Z,21.58
2018-08-20T01:26:29.751Z,21.61
2018-08-20T01:28:58.307Z,21.62
2018-08-20T01:31:26.875Z,21.64
2018-08-20T01:33:55.755Z,21.65
2018-08-20T01:36:24.323Z,21.63
2018-08-20T01:38:52.894Z,21.61
2018-08-20T01:41:21.715Z,21.60
2018-08-20T01:43:50.309Z,21.57
2018-08-20T01:46:18.886Z,21.55
2018-08-20T01:48:47.471Z,21.53
2018-08-20T01:51:16.098Z,21.51
2018-08-20T01:53:44.680Z,21.47
2018-08-20T01:56:13.295Z,21.42
2018-08-20T01:58:41.871Z,21.39
2018-08-20T02:01:10.519Z,21.35
2018-08-20T02:03:39.143Z,21.28
2018-08-20T02:06:07.774Z,21.21
2018-08-20T02:08:36.432Z,21.17
2018-08-20T02:11:05.035Z,21.14
2018-08-20T02:13:33.703Z,21.12
2018-08-20T02:16:02.267Z,21.08
2018-08-20T02:18:30.956Z,21.06
2018-08-20T02:20:59.572Z,21.03
2018-08-20T02:23:28.127Z,21.00
2018-08-20T02:25:56.752Z,20.98
2018-08-20T02:28:25.340Z,20.97
2018-08-20T02:30:53.924Z,20.98
2018-08-20T02:33:22.540Z,20.94
2018-08-20T02:35:51.097Z,20.92
2018-08-20T02:38:19.716Z,20.89
2018-08-20T02:40:48.323Z,20.84
2018-08-20T02:43:16.964Z,20.83
2018-08-20T02:45:45.548Z,20.84
2018-08-20T02:48:14.160Z,20.81
2018-08-20T02:50:42.728Z,20.76
2018-08-20T02:53:11.312Z,20.69
2018-08-20T02:55:39.932Z,20.66
2018-08-20T02:58:08.540Z,20.62
2018-08-20T03:00:37.099Z,20.52
2018-08-20T03:03:05.800Z,20.42
2018-08-20T03:05:34.907Z,20.38
2018-08-20T03:08:03.506Z,20.41
2018-08-20T03:10:32.103Z,20.37
2018-08-20T03:13:00.692Z,20.35
2018-08-20T03:15:29.263Z,20.33
2018-08-20T03:17:57.931Z,20.33
2018-08-20T03:20:26.572Z,20.31
2018-08-20T03:22:55.114Z,20.27
2018-08-20T03:25:23.995Z,20.24
2018-08-20T03:27:52.595Z,20.26
2018-08-20T03:30:21.148Z,20.23
2018-08-20T03:32:50.066Z,20.21
2018-08-20T03:35:18.629Z,20.19
2018-08-20T03:37:47.199Z,20.16
2018-08-20T03:40:16.114Z,20.10
2018-08-20T03:42:44.696Z,20.09
2018-08-20T03:45:13.463Z,20.12
2018-08-20T03:47:42.379Z,20.15
2018-08-20T03:50:13.511Z,20.12
2018-08-20T03:52:42.155Z,20.09
2018-08-20T03:55:10.771Z,20.01
2018-08-20T03:57:39.375Z,20.04
2018-08-20T04:00:10.193Z,20.05
2018-08-20T04:02:38.772Z,20.08
2018-08-20T04:05:07.527Z,20.05
2018-08-20T04:07:36.136Z,20.05
2018-08-20T04:10:04.791Z,20.09
2018-08-20T04:12:33.334Z,20.06
2018-08-20T04:15:02.016Z,20.00
2018-08-20T04:17:30.621Z,19.95
2018-08-20T04:19:59.195Z,19.92
2018-08-20T04:22:27.808Z,19.94
2018-08-20T04:24:56.388Z,19.96
2018-08-20T04:27:24.951Z,19.98
2018-08-20T04:29:53.563Z,19.97
2018-08-20T04:32:22.122Z,19.97
2018-08-20T04:34:50.800Z,19.94
2018-08-20T04:37:19.487Z,19.93
2018-08-20T04:39:48.077Z,19.90
2018-08-20T04:42:16.763Z,19.87
2018-08-20T04:44:45.546Z,19.90
2018-08-20T04:50:00.897Z,19.87
2018-08-20T04:52:29.424Z,19.88
2018-08-20T04:54:58.021Z,19.85
2018-08-20T04:57:27.007Z,19.85
2018-08-20T04:59:55.552Z,19.85
2018-08-20T05:02:24.131Z,19.88
2018-08-20T05:04:52.805Z,19.85
2018-08-20T05:07:21.383Z,19.88
2018-08-20T05:09:49.959Z,19.89
2018-08-20T05:12:18.568Z,19.86
2018-08-20T05:14:47.164Z,19.88
2018-08-20T05:17:15.775Z,19.93
2018-08-20T05:19:44.367Z,19.97
2018-08-20T05:22:12.927Z,20.01
2018-08-20T05:24:41.479Z,20.08
2018-08-20T05:27:10.084Z,20.12
2018-08-20T05:29:38.668Z,20.21
2018-08-20T05:32:07.419Z,20.30
2018-08-20T05:34:36.120Z,20.41
2018-08-20T05:37:05.048Z,20.44
2018-08-20T05:39:33.616Z,20.50
2018-08-20T05:42:02.279Z,20.56
2018-08-20T05:44:30.836Z,20.69
2018-08-20T05:46:59.402Z,20.82
2018-08-20T05:49:28.219Z,20.92
2018-08-20T05:51:56.823Z,21.03
2018-08-20T05:54:25.740Z,21.16
2018-08-20T05:56:54.595Z,21.31
2018-08-20T05:59:23.484Z,21.42
2018-08-20T06:01:52.479Z,21.52
2018-08-20T06:04:21.460Z,21.70
2018-08-20T06:06:50.615Z,21.84
2018-08-20T06:09:19.767Z,21.98
2018-08-20T06:11:48.392Z,22.14
2018-08-20T06:14:17.364Z,22.35
2018-08-20T06:16:46.288Z,22.48
2018-08-20T06:19:14.901Z,22.70
2018-08-20T06:21:43.464Z,22.83
2018-08-20T06:24:12.096Z,23.00
2018-08-20T06:26:40.756Z,23.16
2018-08-20T06:29:09.341Z,23.33
2018-08-20T06:31:37.924Z,23.56
2018-08-20T06:34:07.033Z,23.66
2018-08-20T06:36:35.605Z,23.75
2018-08-20T06:39:05.852Z,23.86
2018-08-20T06:41:34.820Z,23.98
2018-08-20T06:44:03.464Z,24.14
2018-08-20T06:46:32.037Z,24.36
2018-08-20T06:49:00.964Z,24.51
2018-08-20T06:51:29.568Z,24.71
2018-08-20T06:53:58.139Z,24.91
2018-08-20T06:56:26.768Z,25.12
2018-08-20T06:58:55.336Z,25.27
2018-08-20T07:01:23.928Z,25.48
2018-08-20T07:03:52.596Z,25.71
2018-08-20T07:06:21.194Z,25.96
2018-08-20T07:08:49.792Z,26.23
2018-08-20T07:11:18.399Z,26.46
2018-08-20T07:13:46.988Z,26.59
2018-08-20T07:16:15.671Z,26.91
2018-08-20T07:18:45.216Z,27.05
2018-08-20T07:21:13.763Z,27.43
2018-08-20T07:23:42.385Z,27.64
2018-08-20T07:26:11.282Z,27.91
2018-08-20T07:28:39.851Z,27.73
2018-08-20T07:31:08.436Z,28.02
2018-08-20T07:33:37.076Z,28.25
2018-08-20T07:36:05.683Z,28.60
2018-08-20T07:38:34.276Z,28.82
2018-08-20T07:41:02.949Z,29.19
2018-08-20T07:43:31.684Z,29.24
2018-08-20T07:46:00.400Z,29.67
2018-08-20T07:48:29.350Z,29.85
2018-08-20T07:50:58.012Z,29.92
2018-08-20T07:53:26.593Z,30.20
2018-08-20T07:55:55.291Z,30.49
2018-08-20T07:58:23.956Z,30.37
2018-08-20T08:00:52.539Z,30.59
2018-08-20T08:03:29.191Z,30.62
2018-08-20T08:05:59.280Z,30.99
2018-08-20T08:08:27.877Z,31.15
2018-08-20T08:10:56.475Z,31.20
2018-08-20T08:13:25.088Z,31.47
2018-08-20T08:15:53.656Z,31.60
2018-08-20T08:18:22.596Z,31.28
2018-08-20T08:20:51.216Z,31.48
2018-08-20T08:23:19.835Z,31.95
2018-08-20T08:25:48.566Z,31.36
2018-08-20T08:28:17.172Z,31.31
2018-08-20T08:30:45.776Z,31.64
2018-08-20T08:33:14.508Z,31.48
2018-08-20T08:35:43.132Z,31.75
2018-08-20T08:38:11.905Z,31.92
2018-08-20T08:40:40.488Z,32.09
2018-08-20T08:43:09.098Z,32.20
2018-08-20T08:45:37.671Z,31.88
2018-08-20T08:48:06.399Z,31.93
2018-08-20T08:50:34.997Z,32.04
2018-08-20T08:53:03.568Z,32.46
2018-08-20T08:55:32.179Z,32.42
2018-08-20T08:58:00.772Z,32.60
2018-08-20T09:00:29.423Z,32.16
2018-08-20T09:02:58.012Z,32.21
2018-08-20T09:05:26.578Z,32.75
2018-08-20T09:07:55.214Z,32.75
2018-08-20T09:10:24.091Z,32.74
2018-08-20T09:12:52.675Z,32.10
2018-08-20T09:15:21.263Z,31.85
2018-08-20T09:17:49.939Z,31.98
2018-08-20T09:20:18.659Z,32.66
2018-08-20T09:22:47.280Z,32.52
2018-08-20T09:25:16.067Z,32.61
2018-08-20T09:27:45.484Z,32.78
2018-08-20T09:30:19.077Z,32.96
2018-08-20T09:32:48.487Z,32.26
2018-08-20T09:35:17.163Z,32.10
2018-08-20T09:37:46.099Z,32.54
2018-08-20T09:40:14.874Z,33.24
2018-08-20T09:42:44.027Z,33.46
2018-08-20T09:45:13.083Z,33.69
2018-08-20T09:47:42.548Z,33.59
2018-08-20T09:50:14.040Z,33.69
2018-08-20T09:52:43.371Z,33.71
2018-08-20T09:55:11.958Z,33.49
2018-08-20T09:57:41.073Z,33.96
2018-08-20T10:00:20.212Z,33.36
2018-08-20T10:02:49.004Z,33.34
2018-08-20T10:05:17.995Z,33.80
2018-08-20T10:07:47.048Z,34.15
2018-08-20T10:10:16.148Z,34.25
2018-08-20T10:12:45.704Z,34.67
2018-08-20T10:15:14.792Z,34.81
2018-08-20T10:17:44.523Z,35.20
2018-08-20T10:20:14.316Z,35.43
2018-08-20T10:22:42.919Z,35.06
2018-08-20T10:25:11.565Z,34.86
2018-08-20T10:27:40.168Z,35.00
2018-08-20T10:30:10.463Z,34.52
2018-08-20T10:32:39.180Z,34.78
2018-08-20T10:35:08.136Z,34.51
2018-08-20T10:37:36.778Z,34.45
2018-08-20T10:40:06.450Z,34.38
2018-08-20T10:42:35.067Z,34.86
2018-08-20T10:45:09.082Z,34.62
2018-08-20T10:47:37.644Z,34.58
2018-08-20T10:50:06.409Z,34.32
2018-08-20T10:52:34.975Z,34.80
2018-08-20T10:55:03.569Z,34.71
2018-08-20T10:57:32.282Z,34.51
2018-08-20T11:00:00.900Z,35.08
2018-08-20T11:02:29.476Z,35.03
2018-08-20T11:04:58.055Z,34.89
2018-08-20T11:07:26.668Z,34.84
2018-08-20T11:09:55.237Z,34.79
2018-08-20T11:12:23.880Z,34.03
2018-08-20T11:14:52.688Z,33.32
2018-08-20T11:17:21.255Z,32.98
2018-08-20T11:19:49.856Z,32.99
2018-08-20T11:22:18.516Z,32.56
2018-08-20T11:24:47.096Z,32.67
2018-08-20T11:27:15.640Z,33.71
2018-08-20T11:29:44.444Z,35.04
2018-08-20T11:32:13.004Z,36.77
2018-08-20T11:34:41.679Z,38.14
2018-08-20T11:37:10.373Z,39.63
2018-08-20T11:39:38.976Z,40.30
2018-08-20T11:42:07.575Z,40.59
2018-08-20T11:44:36.267Z,41.51
2018-08-20T11:47:04.913Z,41.79
2018-08-20T11:49:33.604Z,40.05
2018-08-20T11:52:02.293Z,37.87
2018-08-20T11:54:30.851Z,36.45
2018-08-20T11:56:59.495Z,35.27
2018-08-20T11:59:28.219Z,34.38
2018-08-20T12:01:56.972Z,33.82
2018-08-20T12:04:25.508Z,33.72
2018-08-20T12:06:54.179Z,33.54
2018-08-20T12:09:22.732Z,33.26
2018-08-20T12:11:51.306Z,32.92
2018-08-20T12:14:20.012Z,32.80
2018-08-20T12:16:48.600Z,32.86
2018-08-20T12:19:17.203Z,32.96
2018-08-20T12:21:45.946Z,32.73
2018-08-20T12:24:14.504Z,32.79
2018-08-20T12:26:43.068Z,32.80
2018-08-20T12:29:11.831Z,32.54
2018-08-20T12:31:40.435Z,32.48
2018-08-20T12:34:09.053Z,32.51
2018-08-20T12:36:38.463Z,32.73
2018-08-20T12:39:08.468Z,32.43
2018-08-20T12:41:37.036Z,31.91
2018-08-20T12:44:06.140Z,31.55
2018-08-20T12:46:34.676Z,31.54
2018-08-20T12:49:03.279Z,31.67
2018-08-20T12:51:31.931Z,31.58
2018-08-20T12:54:00.624Z,31.80
2018-08-20T12:56:29.188Z,31.99
2018-08-20T12:58:57.947Z,32.07
2018-08-20T13:01:26.565Z,31.84
2018-08-20T13:03:55.142Z,31.92
2018-08-20T13:06:23.776Z,31.99
2018-08-20T13:08:52.353Z,31.99
2018-08-20T13:11:21.117Z,31.86
2018-08-20T13:13:49.860Z,31.96
2018-08-20T13:16:18.478Z,31.92
2018-08-20T13:18:46.980Z,31.73
2018-08-20T13:21:15.801Z,31.42
2018-08-20T13:23:44.345Z,31.20
2018-08-20T13:26:12.948Z,31.10
2018-08-20T13:28:41.584Z,31.30
2018-08-20T13:31:10.263Z,31.51
2018-08-20T13:33:38.837Z,31.53
2018-08-20T13:36:07.585Z,31.61
2018-08-20T13:38:36.211Z,31.49
2018-08-20T13:41:04.823Z,31.61
2018-08-20T13:43:33.419Z,31.56
2018-08-20T13:46:02.050Z,31.62
2018-08-20T13:48:30.624Z,31.73
2018-08-20T13:50:59.231Z,31.52
2018-08-20T13:53:27.785Z,31.47
2018-08-20T13:55:56.385Z,31.37
2018-08-20T13:58:25.030Z,31.49
2018-08-20T14:00:53.662Z,31.40
2018-08-20T14:03:22.327Z,31.29
2018-08-20T14:05:51.181Z,31.05
2018-08-20T14:08:19.756Z,31.13
2018-08-20T14:10:48.335Z,31.22
2018-08-20T14:13:16.972Z,31.06
2018-08-20T14:15:45.684Z,31.19
2018-08-20T14:18:14.207Z,31.05
2018-08-20T14:21:18.126Z,31.05
2018-08-20T14:23:47.905Z,31.05
2018-08-20T14:26:16.529Z,31.05
2018-08-20T14:28:45.173Z,31.23
2018-08-20T14:31:13.770Z,31.27
2018-08-20T14:33:42.339Z,31.29
2018-08-20T14:36:11.192Z,31.15
2018-08-20T14:38:39.763Z,31.17
2018-08-20T14:41:08.368Z,31.10
2018-08-20T14:43:36.996Z,30.97
2018-08-20T14:46:11.269Z,30.83
2018-08-20T14:48:39.917Z,30.78
2018-08-20T14:51:08.432Z,30.71
2018-08-20T14:53:37.050Z,30.82
2018-08-20T14:56:05.972Z,30.80
2018-08-20T14:58:34.564Z,30.75
2018-08-20T15:01:03.120Z,30.65
2018-08-20T15:03:32.148Z,30.79
2018-08-20T15:06:00.700Z,30.69
2018-08-20T15:08:29.264Z,30.61
2018-08-20T15:10:57.912Z,30.65
2018-08-20T15:13:26.480Z,30.57
2018-08-20T15:15:55.097Z,30.60
2018-08-20T15:18:24.055Z,30.70
2018-08-20T15:20:52.680Z,30.64
2018-08-20T15:23:21.259Z,30.48
2018-08-20T15:25:49.917Z,30.55
2018-08-20T15:28:18.529Z,30.55
2018-08-20T15:30:47.149Z,30.45
2018-08-20T15:33:15.764Z,30.54
2018-08-20T15:35:44.317Z,30.61
2018-08-20T15:38:13.016Z,30.43
2018-08-20T15:40:41.616Z,30.45
2018-08-20T15:43:10.392Z,30.54
2018-08-20T15:45:38.964Z,30.61
2018-08-20T15:48:07.873Z,30.46
2018-08-20T15:50:36.432Z,30.38
2018-08-20T15:53:05.068Z,30.27
2018-08-20T15:55:33.764Z,30.36
2018-08-20T15:58:02.360Z,30.45
2018-08-20T16:00:30.963Z,30.26
2018-08-20T16:03:00.104Z,30.33
2018-08-20T16:05:28.684Z,30.18
2018-08-20T16:07:57.268Z,30.22
2018-08-20T16:10:25.944Z,30.18
2018-08-20T16:12:54.711Z,30.14
2018-08-20T16:15:23.283Z,29.98
2018-08-20T16:17:51.967Z,29.99
2018-08-20T16:20:20.573Z,30.01
2018-08-20T16:22:49.131Z,29.83
2018-08-20T16:25:17.707Z,29.83
2018-08-20T16:27:46.260Z,29.67
2018-08-20T16:30:14.891Z,29.48
2018-08-20T16:32:43.557Z,29.59
2018-08-20T16:35:13.264Z,29.66
2018-08-20T16:37:43.387Z,29.52
2018-08-20T16:40:12.375Z,29.53
2018-08-20T16:42:40.938Z,29.58
2018-08-20T16:45:10.647Z,29.66
2018-08-20T16:47:39.710Z,29.56
2018-08-20T16:50:10.676Z,29.51
2018-08-20T16:52:40.239Z,29.48
2018-08-20T16:55:09.568Z,29.50
2018-08-20T16:57:38.216Z,29.61
2018-08-20T17:00:09.043Z,29.59
2018-08-20T17:02:41.900Z,29.62
2018-08-20T17:05:12.084Z,29.52
2018-08-20T17:07:41.031Z,29.49
2018-08-20T17:10:11.536Z,29.46
2018-08-20T17:12:40.630Z,29.42
2018-08-20T17:15:11.304Z,29.43
2018-08-20T17:17:40.363Z,29.35
2018-08-20T17:20:10.507Z,29.30
2018-08-20T17:22:39.244Z,29.31
2018-08-20T17:25:08.552Z,29.35
2018-08-20T17:27:37.270Z,29.30
2018-08-20T17:30:08.214Z,29.32
2018-08-20T17:32:36.884Z,29.32
2018-08-20T17:35:08.167Z,29.28
2018-08-20T17:37:36.779Z,29.31
2018-08-20T17:40:08.811Z,29.20
2018-08-20T17:42:37.401Z,29.04
2018-08-20T17:45:07.489Z,28.97
2018-08-20T17:47:39.389Z,28.97
2018-08-20T17:50:19.956Z,28.90
2018-08-20T17:52:48.907Z,28.83
2018-08-20T17:55:17.504Z,28.83
2018-08-20T17:57:46.151Z,28.86
2018-08-20T18:00:26.200Z,28.84
2018-08-20T18:02:54.796Z,28.73
2018-08-20T18:05:25.023Z,28.75
2018-08-20T18:07:54.171Z,28.67
2018-08-20T18:10:22.739Z,28.69
2018-08-20T18:12:51.313Z,28.68
2018-08-20T18:15:20.069Z,28.61
2018-08-20T18:17:48.639Z,28.57
2018-08-20T18:20:17.221Z,28.54
2018-08-20T18:22:45.876Z,28.52
2018-08-20T18:25:18.893Z,28.52
2018-08-20T18:27:47.763Z,28.47
2018-08-20T18:30:17.899Z,28.43
2018-08-20T18:32:46.919Z,28.40
2018-08-20T18:35:22.723Z,28.36
2018-08-20T18:37:52.158Z,28.33
2018-08-20T18:40:20.834Z,28.28
2018-08-20T18:42:49.424Z,28.25
2018-08-20T18:45:18.365Z,28.20
2018-08-20T18:47:46.953Z,28.13
2018-08-20T18:50:15.746Z,28.12
2018-08-20T18:52:44.724Z,28.07
2018-08-20T18:55:13.303Z,27.94
2018-08-20T18:57:41.867Z,27.91
2018-08-20T19:00:13.452Z,27.90
2018-08-20T19:02:47.955Z,27.89
2018-08-20T19:05:17.786Z,27.84
2018-08-20T19:07:46.744Z,27.79
2018-08-20T19:10:24.170Z,27.70
2018-08-20T19:12:52.944Z,27.72
2018-08-20T19:15:50.032Z,27.65
2018-08-20T19:18:21.323Z,27.62
2018-08-20T19:20:50.016Z,27.60
2018-08-20T19:23:18.588Z,27.55
2018-08-20T19:25:47.621Z,27.57
2018-08-20T19:28:20.914Z,27.51
2018-08-20T19:30:50.184Z,27.40
2018-08-20T19:33:24.961Z,27.34
2018-08-20T19:35:54.134Z,27.39
2018-08-20T19:38:22.831Z,27.28
2018-08-20T19:41:07.380Z,27.26
2018-08-20T19:43:53.528Z,27.26
2018-08-20T19:46:28.751Z,27.21
2018-08-20T19:49:02.666Z,27.20
2018-08-20T19:51:33.260Z,27.17
2018-08-20T19:54:01.920Z,27.14
2018-08-20T19:56:30.835Z,27.13
2018-08-20T19:58:59.732Z,27.11
2018-08-20T20:01:28.452Z,27.06
2018-08-20T20:03:57.135Z,27.03
2018-08-20T20:06:25.827Z,26.98
2018-08-20T20:08:54.502Z,26.98
2018-08-20T20:11:28.391Z,26.92
2018-08-20T20:14:01.053Z,26.91
2018-08-20T20:16:40.198Z,26.87
2018-08-20T20:19:09.683Z,26.83
2018-08-20T20:21:38.566Z,26.79
2018-08-20T20:24:07.903Z,26.79
2018-08-20T20:26:36.511Z,26.77
2018-08-20T20:29:06.217Z,26.76
2018-08-20T20:31:34.831Z,26.72
2018-08-20T20:34:03.440Z,26.65
2018-08-20T20:36:32.839Z,26.52
2018-08-20T20:39:02.313Z,26.43
2018-08-20T20:41:30.907Z,26.36
2018-08-20T20:43:59.531Z,26.27
2018-08-20T20:46:28.172Z,26.18
2018-08-20T20:48:56.812Z,26.15
2018-08-20T20:51:25.379Z,26.16
2018-08-20T20:53:54.297Z,26.13
2018-08-20T20:56:22.879Z,25.98
2018-08-20T20:58:51.456Z,26.00
2018-08-20T21:01:20.261Z,25.96
2018-08-20T21:03:48.831Z,25.97
2018-08-20T21:06:17.399Z,25.92
2018-08-20T21:08:47.743Z,25.88
2018-08-20T21:11:17.567Z,25.78
2018-08-20T21:13:46.676Z,25.79
2018-08-20T21:16:17.732Z,25.74
2018-08-20T21:18:52.903Z,25.68
2018-08-20T21:21:22.172Z,25.72
2018-08-20T21:23:50.867Z,25.69
2018-08-20T21:26:19.503Z,25.70
2018-08-20T21:28:51.708Z,25.71
2018-08-20T21:31:21.663Z,25.71
2018-08-20T21:34:01.544Z,25.63
2018-08-20T21:36:30.103Z,25.66
2018-08-20T21:38:58.772Z,25.64
2018-08-20T21:41:29.327Z,25.60
2018-08-20T21:43:57.975Z,25.59
2018-08-20T21:46:26.572Z,25.54
2018-08-20T21:48:55.215Z,25.48
2018-08-20T21:51:25.536Z,25.44
2018-08-20T21:53:54.292Z,25.38
2018-08-20T21:56:22.983Z,25.37
2018-08-20T21:58:51.547Z,25.34
2018-08-20T22:01:20.352Z,25.30
2018-08-20T22:03:48.884Z,25.19
2018-08-20T22:06:17.471Z,25.07
2018-08-20T22:08:46.186Z,25.01
2018-08-20T22:11:14.754Z,24.99
2018-08-20T22:13:43.351Z,24.92
2018-08-20T22:16:25.541Z,24.90
2018-08-20T22:18:55.656Z,24.78
2018-08-20T22:21:24.776Z,24.85
2018-08-20T22:23:58.388Z,24.80
2018-08-20T22:26:27.280Z,24.82
2018-08-20T22:28:55.947Z,24.81
2018-08-20T22:31:25.200Z,24.79
2018-08-20T22:33:59.643Z,24.75
2018-08-20T22:36:29.443Z,24.69
2018-08-20T22:39:00.373Z,24.65
2018-08-20T22:41:30.152Z,24.58
2018-08-20T22:43:58.859Z,24.51
2018-08-20T22:46:27.588Z,24.48
2018-08-20T22:48:58.055Z,24.45
2018-08-20T22:51:28.095Z,24.45
2018-08-20T22:53:59.360Z,24.40
2018-08-20T22:56:35.239Z,24.41
2018-08-20T22:59:08.967Z,24.40
2018-08-20T23:01:37.571Z,24.38
2018-08-20T23:04:06.687Z,24.37
2018-08-20T23:06:35.356Z,24.38
2018-08-20T23:09:20.491Z,24.33
2018-08-20T23:11:49.123Z,24.29
2018-08-20T23:14:17.727Z,24.30
2018-08-20T23:16:50.828Z,24.28
2018-08-20T23:19:19.568Z,24.26
2018-08-20T23:21:49.115Z,24.20
2018-08-20T23:24:18.607Z,24.13
2018-08-20T23:26:47.189Z,24.04
2018-08-20T23:29:15.763Z,23.97
2018-08-20T23:31:44.409Z,23.93
2018-08-20T23:34:14.343Z,23.94
2018-08-20T23:36:43.462Z,23.93
2018-08-20T23:39:16.185Z,23.93
2018-08-20T23:41:44.888Z,23.91
2018-08-20T23:44:17.097Z,23.89
2018-08-20T23:46:47.775Z,23.86
2018-08-20T23:49:16.339Z,23.83
2018-08-20T23:51:45.021Z,23.81
2018-08-20T23:54:14.212Z,23.79
2018-08-20T23:56:42.811Z,23.75
2018-08-20T23:59:11.524Z,23.74
